KCKB/CKB METAR and TAF weather

Enter ICAO airport designator
Station Type Date Time Source
KCKB METAR 2018/07/20 13:53 UTC NOAA

KCKB 201353Z 15005KT 10SM CLR 27/16 A3005 RMK AO2 SLP157 T02670156


Station Type Date Time Source
KCKB Decoded METAR 2018/07/20 13:53 UTC NOAA

HARRISON/MARION REGIONAL, WV, United States (KCKB) 39-18N 080-13W 360M
Jul 20, 2018 - 09:53 AM EDT / 2018.07.20 1353 UTC
Wind: from the SSE (150 degrees) at 6 MPH (5 KT):0
Visibility: 10 mile(s):0
Sky conditions: clear
Temperature: 80.1 F (26.7 C)
Dew Point: 60.1 F (15.6 C)
Relative Humidity: 50%
Pressure (altimeter): 30.05 in. Hg (1017 hPa)
ob: KCKB 201353Z 15005KT 10SM CLR 27/16 A3005 RMK AO2 SLP157 T02670156
cycle: 14

Station Type Date Time Source
KCKB TAF 2018/07/20 14:18 UTC NOAA

TAF
AMD KCKB 201417Z 2014/2112 15005KT P6SM SCT050
FM201600 17004KT P6SM SCT050
FM202000 16005KT P6SM BKN050


Example: see airport list